Time;durP1;ratioP1;P1;durP2;ratioP2;P2;SDS_P1;SDS_P2;PMS_P1;PMS_P2;Temp;Humidity;BMP_temperature;BMP_pressure;BME280_temperature;BME280_humidity;BME280_pressure;Samples;Min_cycle;Max_cycle;Signal;HPM_P1;HPM_P2
2022/04/01 06:20:32;;;;;;;;;2.25;2.00;;;;;17.03;51.10;100107.88;5074081;27;45735;-70
2022/04/01 06:23:05;;;;;;;;;1.75;1.75;;;;;17.21;51.38;100108.06;5059002;28;45446;-70
2022/04/01 06:25:38;;;;;;;;;0.75;0.75;;;;;17.48;51.32;100106.47;5067379;27;45489;-71
2022/04/01 06:28:15;;;;;;;;;0.00;0.00;;;;;17.77;51.04;100113.59;5061125;28;45438;-71
2022/04/01 06:30:42;;;;;;;;;1.25;0.00;;;;;18.06;50.82;100115.34;5065074;27;45498;-72
2022/04/01 06:33:28;;;;;;;;;3.00;1.00;;;;;18.38;50.30;100115.94;5053394;28;45479;-71
2022/04/01 06:36:00;;;;;;;;;1.75;1.50;;;;;18.69;50.01;100118.34;5061019;28;45441;-71
2022/04/01 06:38:45;;;;;;;;;3.50;1.00;;;;;18.96;49.60;100125.50;5056176;28;45660;-71
2022/04/01 06:41:17;;;;;;;;;2.00;0.67;;;;;19.25;48.89;100123.59;5063784;28;46390;-71
2022/04/01 06:43:43;;;;;;;;;2.00;1.67;;;;;19.49;48.17;100139.09;5056102;27;45355;-71
2022/04/01 06:46:10;;;;;;;;;2.00;1.00;;;;;19.72;47.75;100132.38;5056796;27;45435;-72
2022/04/01 06:48:36;;;;;;;;;2.67;1.67;;;;;19.94;47.49;100143.63;5054299;27;45549;-71
2022/04/01 06:51:01;;;;;;;;;4.00;1.00;;;;;20.10;46.18;100142.88;5066585;27;46989;-72
2022/04/01 06:53:28;;;;;;;;;0.67;0.67;;;;;20.25;46.69;100146.69;5058791;27;45782;-72
2022/04/01 06:55:53;;;;;;;;;1.00;1.00;;;;;20.43;46.36;100145.72;5062712;27;45435;-71
2022/04/01 06:58:19;;;;;;;;;0.00;0.00;;;;;20.59;46.70;100150.34;5063255;27;46050;-74
2022/04/01 07:00:44;;;;;;;;;0.33;0.33;;;;;20.76;46.34;100156.63;5062361;28;46073;-72
2022/04/01 07:03:11;;;;;;;;;3.00;1.67;;;;;20.91;46.19;100156.88;5067009;28;48606;-72
2022/04/01 07:05:38;;;;;;;;;0.00;0.00;;;;;21.05;45.52;100165.34;5067728;28;45568;-71
2022/04/01 07:08:05;;;;;;;;;0.67;0.67;;;;;21.17;45.36;100146.97;5064555;28;45400;-73
2022/04/01 07:10:31;;;;;;;;;0.00;0.00;;;;;21.29;45.14;100156.41;5062807;28;45843;-73
2022/04/01 07:12:57;;;;;;;;;2.67;1.00;;;;;21.40;45.45;100152.56;5060063;27;45663;-71
2022/04/01 07:15:22;;;;;;;;;5.00;0.00;;;;;21.51;45.42;100158.63;5056985;28;45496;-72
2022/04/01 07:17:48;;;;;;;;;2.67;1.00;;;;;21.59;44.94;100161.31;5064630;28;54712;-71
2022/04/01 07:20:13;;;;;;;;;2.00;2.00;;;;;21.67;44.52;100153.19;5068013;28;45889;-72
2022/04/01 07:22:40;;;;;;;;;1.00;0.00;;;;;21.73;44.96;100154.41;5064593;27;45578;-72
2022/04/01 07:25:07;;;;;;;;;0.00;0.00;;;;;21.82;44.60;100157.94;5065327;27;45849;-72
2022/04/01 07:27:34;;;;;;;;;1.67;1.67;;;;;21.87;44.57;100165.53;5066274;27;45352;-71
2022/04/01 07:29:59;;;;;;;;;4.00;0.67;;;;;21.91;44.07;100159.63;5063228;28;50806;-74
2022/04/01 07:32:30;;;;;;;;;1.00;0.00;;;;;21.96;43.84;100161.81;5038505;28;45652;-73
2022/04/01 07:34:56;;;;;;;;;0.33;0.33;;;;;21.97;43.53;100168.91;5056323;28;45522;-74
2022/04/01 07:37:23;;;;;;;;;2.00;0.00;;;;;21.98;43.12;100170.56;5045334;28;45498;-72
2022/04/01 07:39:52;;;;;;;;;4.67;1.33;;;;;22.00;42.90;100170.41;5053319;28;46316;-74
2022/04/01 07:42:20;;;;;;;;;2.00;2.00;;;;;21.97;42.59;100172.47;5045601;28;45629;-73
2022/04/01 07:44:46;;;;;;;;;4.00;2.00;;;;;21.97;43.01;100180.56;5047578;28;45472;-73
2022/04/01 07:47:14;;;;;;;;;0.00;0.00;;;;;21.97;42.58;100177.00;5053971;28;45496;-73
2022/04/01 07:49:40;;;;;;;;;5.33;1.00;;;;;22.00;42.61;100175.81;5050532;28;45936;-73
2022/04/01 07:52:08;;;;;;;;;2.00;1.00;;;;;22.01;42.63;100182.91;5051583;28;45481;-73
2022/04/01 07:54:34;;;;;;;;;2.67;1.00;;;;;22.04;42.24;100177.16;5050000;28;45497;-73
2022/04/01 07:57:00;;;;;;;;;0.00;0.00;;;;;22.05;42.57;100190.50;5050087;28;45460;-73
2022/04/01 07:59:25;;;;;;;;;1.00;1.00;;;;;22.07;42.32;100198.44;5055057;28;45697;-73
2022/04/01 08:01:51;;;;;;;;;1.00;0.33;;;;;22.08;41.74;100194.72;5052232;28;45380;-73
2022/04/01 08:04:16;;;;;;;;;1.00;1.00;;;;;22.09;41.84;100194.56;5044090;28;45482;-73
2022/04/01 08:06:42;;;;;;;;;1.00;0.67;;;;;22.11;41.64;100202.47;5041879;28;45618;-73
2022/04/01 08:09:08;;;;;;;;;0.00;0.00;;;;;22.11;41.74;100206.03;5051654;28;48988;-73
2022/04/01 08:11:33;;;;;;;;;0.33;0.33;;;;;22.15;41.44;100211.09;5052671;28;45570;-73
2022/04/01 08:13:59;;;;;;;;;1.33;1.00;;;;;22.16;41.49;100205.53;5054664;28;45839;-73
2022/04/01 08:16:24;;;;;;;;;0.00;0.00;;;;;22.18;41.64;100200.78;5042798;28;45485;-73
2022/04/01 08:18:50;;;;;;;;;1.00;0.00;;;;;22.20;41.83;100216.81;5042634;28;45631;-73
2022/04/01 08:21:16;;;;;;;;;0.00;0.00;;;;;22.21;41.79;100216.66;5050793;28;50812;-73
2022/04/01 08:23:42;;;;;;;;;2.00;0.00;;;;;22.23;41.90;100228.13;5053297;28;45545;-73
2022/04/01 08:26:08;;;;;;;;;2.00;1.00;;;;;22.23;41.77;100222.72;5053728;28;45639;-73
2022/04/01 08:28:34;;;;;;;;;1.00;1.00;;;;;22.26;41.58;100237.75;5052721;28;46294;-73
2022/04/01 08:31:01;;;;;;;;;0.67;0.67;;;;;22.28;41.65;100226.78;5049992;28;45489;-73
2022/04/01 08:33:26;;;;;;;;;2.00;1.00;;;;;22.30;41.67;100232.84;5051446;28;45470;-74
2022/04/01 08:35:52;;;;;;;;;0.00;0.00;;;;;22.31;41.39;100235.38;5052492;28;45522;-73
2022/04/01 08:38:18;;;;;;;;;0.00;0.00;;;;;22.32;41.06;100245.16;5055016;28;46130;-73
2022/04/01 08:40:44;;;;;;;;;0.33;0.33;;;;;22.35;41.08;100244.84;5051196;28;45734;-73
2022/04/01 08:43:09;;;;;;;;;1.00;1.00;;;;;22.35;41.41;100257.50;5050262;28;45505;-73
2022/04/01 08:45:37;;;;;;;;;0.00;0.00;;;;;22.35;41.07;100260.19;5049615;28;45499;-73
2022/04/01 08:48:11;;;;;;;;;0.67;0.67;;;;;22.36;41.10;100261.91;5050836;28;47025;-73
2022/04/01 08:50:39;;;;;;;;;1.00;1.00;;;;;22.34;41.29;100261.22;5053780;28;45341;-81
2022/04/01 08:53:05;;;;;;;;;1.00;1.00;;;;;22.35;40.77;100269.16;5039828;28;45423;-83
2022/04/01 08:55:30;;;;;;;;;1.33;1.00;;;;;22.32;41.19;100269.50;5039932;28;45483;-83
2022/04/01 08:57:56;;;;;;;;;1.00;1.00;;;;;22.31;40.90;100272.41;5040985;28;51130;-77
2022/04/01 09:00:22;;;;;;;;;2.00;1.33;;;;;22.29;40.51;100279.81;5052930;28;45377;-76
2022/04/01 09:03:08;;;;;;;;;2.00;2.00;;;;;22.29;40.88;100290.63;5053346;28;45560;-75
2022/04/01 09:05:34;;;;;;;;;1.00;1.00;;;;;22.27;40.66;100288.09;5050971;28;45724;-76
2022/04/01 09:08:08;;;;;;;;;2.67;1.67;;;;;22.27;40.80;100296.22;5049614;28;45749;-76
2022/04/01 09:11:02;;;;;;;;;0.33;0.33;;;;;22.27;40.64;100303.50;5047726;28;45591;-76
2022/04/01 09:13:30;;;;;;;;;4.00;2.00;;;;;22.27;40.87;100303.50;5043647;28;46727;-76
2022/04/01 09:15:57;;;;;;;;;1.00;1.00;;;;;22.25;40.93;100315.28;5041650;28;45532;-76
2022/04/01 09:18:42;;;;;;;;;1.00;1.00;;;;;22.26;40.89;100310.75;5039682;28;47190;-76
2022/04/01 09:21:10;;;;;;;;;0.00;0.00;;;;;22.25;40.53;100307.19;5038661;28;45485;-76
2022/04/01 09:23:36;;;;;;;;;1.00;1.00;;;;;22.24;40.46;100315.50;5052874;28;45481;-76
2022/04/01 09:26:03;;;;;;;;;0.33;0.33;;;;;22.24;40.78;100324.44;5052872;28;45469;-76
2022/04/01 09:28:30;;;;;;;;;1.00;1.00;;;;;22.24;40.64;100329.00;5041471;28;46440;-76
2022/04/01 09:31:00;;;;;;;;;2.00;0.33;;;;;22.23;40.39;100328.16;5046261;28;45475;-76
2022/04/01 09:33:32;;;;;;;;;1.00;1.00;;;;;22.22;40.36;100331.03;5049643;28;45637;-76
2022/04/01 09:36:04;;;;;;;;;3.00;1.00;;;;;22.21;40.93;100332.03;5040174;28;45375;-77
2022/04/01 09:38:29;;;;;;;;;1.33;1.33;;;;;22.22;40.90;100336.44;5039473;28;48468;-75
2022/04/01 09:40:59;;;;;;;;;4.00;2.33;;;;;22.24;40.96;100331.72;5054141;28;45515;-74
2022/04/01 09:43:24;;;;;;;;;2.33;2.00;;;;;22.25;40.58;100336.91;5050400;28;45553;-74
2022/04/01 09:45:50;;;;;;;;;2.00;1.67;;;;;22.29;40.55;100342.00;5048361;28;45550;-73
2022/04/01 09:48:20;;;;;;;;;4.00;2.33;;;;;22.32;40.38;100344.38;5038101;28;46046;-73
2022/04/01 09:50:59;;;;;;;;;2.00;1.67;;;;;22.32;40.66;100350.59;5035625;28;45495;-73
2022/04/01 09:53:25;;;;;;;;;7.00;2.00;;;;;22.32;40.90;100344.38;5038310;28;45582;-73
2022/04/01 09:55:52;;;;;;;;;2.00;1.67;;;;;22.33;40.66;100351.47;5047093;28;45490;-71
2022/04/01 09:58:19;;;;;;;;;1.33;1.33;;;;;22.35;40.67;100350.28;5045527;28;45904;-71
2022/04/01 10:00:46;;;;;;;;;3.67;3.00;;;;;22.36;40.80;100353.84;5050002;28;45570;-72
2022/04/01 10:03:14;;;;;;;;;1.00;1.00;;;;;22.40;40.52;100373.25;5050133;28;45434;-71
2022/04/01 10:05:40;;;;;;;;;1.33;1.00;;;;;22.41;40.76;100370.41;5039842;28;45472;-71
2022/04/01 10:08:08;;;;;;;;;1.00;1.00;;;;;22.41;40.44;100367.69;5047848;28;45936;-71
2022/04/01 10:10:35;;;;;;;;;3.33;2.67;;;;;22.44;40.54;100369.19;5038914;28;45532;-72
2022/04/01 10:13:05;;;;;;;;;1.00;1.00;;;;;22.45;40.31;100370.88;5038434;28;50381;-72
2022/04/01 10:15:32;;;;;;;;;5.00;2.00;;;;;22.42;40.97;100363.97;5038347;28;45400;-72
2022/04/01 10:17:58;;;;;;;;;0.33;0.33;;;;;22.46;40.84;100373.44;5045516;28;46216;-72
2022/04/01 10:20:31;;;;;;;;;1.33;1.33;;;;;22.47;40.46;100375.09;5051706;28;45798;-72
2022/04/01 10:22:56;;;;;;;;;3.33;1.00;;;;;22.49;40.23;100367.66;5042625;28;45516;-72
2022/04/01 10:25:43;;;;;;;;;2.33;1.00;;;;;22.48;40.82;100371.38;5049689;28;45498;-72
2022/04/01 10:28:09;;;;;;;;;1.33;1.33;;;;;22.50;40.54;100379.34;5042434;28;46645;-72
2022/04/01 10:30:35;;;;;;;;;3.00;1.33;;;;;22.48;40.73;100371.38;5037546;28;54628;-74
2022/04/01 10:33:06;;;;;;;;;1.00;1.00;;;;;22.50;40.34;100377.47;5034713;28;45620;-71
2022/04/01 10:35:38;;;;;;;;;2.00;2.00;;;;;22.52;40.30;100388.09;5038921;28;45512;-72
2022/04/01 10:38:06;;;;;;;;;2.00;2.00;;;;;22.54;40.26;100374.44;5043902;28;46084;-72
2022/04/01 10:40:33;;;;;;;;;1.00;1.00;;;;;22.55;40.18;100387.81;5042815;28;45536;-71
2022/04/01 10:43:14;;;;;;;;;1.67;1.00;;;;;22.56;40.23;100397.59;5049608;28;45571;-72
2022/04/01 10:45:55;;;;;;;;;1.67;1.33;;;;;22.57;40.12;100388.50;5051263;28;45549;-71
2022/04/01 10:51:36;;;;;;;;;1.00;1.00;;;;;22.59;40.09;100412.66;5042574;28;45496;-72
2022/04/01 10:54:14;;;;;;;;;2.33;2.33;;;;;22.58;39.60;100411.81;5051511;28;45573;-73
2022/04/01 10:56:41;;;;;;;;;2.00;2.00;;;;;22.59;39.49;100413.50;5049961;28;45323;-72
2022/04/01 10:59:14;;;;;;;;;1.33;1.33;;;;;22.60;39.93;100414.38;5046866;28;46225;-72
2022/04/01 11:01:51;;;;;;;;;2.33;1.00;;;;;22.60;40.04;100420.59;5050532;28;45590;-72
2022/04/01 11:04:16;;;;;;;;;2.33;2.33;;;;;22.61;39.71;100426.88;5044299;28;45814;-72
2022/04/01 11:07:08;;;;;;;;;2.33;2.33;;;;;22.59;39.79;100431.59;5038727;28;45838;-73
2022/04/01 11:09:45;;;;;;;;;1.00;1.00;;;;;22.58;39.27;100419.94;5043346;28;46173;-72
2022/04/01 11:12:20;;;;;;;;;2.00;2.00;;;;;22.58;39.53;100424.50;5052620;28;45565;-73
2022/04/01 11:15:10;;;;;;;;;1.33;1.33;;;;;22.57;39.33;100441.72;5075325;27;45501;-73
2022/04/01 11:17:38;;;;;;;;;4.00;2.00;;;;;22.56;39.56;100443.59;5037530;28;45486;-73
2022/04/01 11:20:06;;;;;;;;;2.33;2.33;;;;;22.55;39.59;100439.19;5052853;28;46214;-73
2022/04/01 11:22:56;;;;;;;;;2.33;2.33;;;;;22.55;39.10;100441.03;5042713;28;45448;-73
2022/04/01 11:25:22;;;;;;;;;3.00;3.00;;;;;22.55;39.05;100439.19;5050381;28;45811;-73
2022/04/01 11:27:56;;;;;;;;;5.00;4.00;;;;;22.56;39.05;100437.34;5041627;28;45534;-76
2022/04/01 11:30:25;;;;;;;;;2.33;2.33;;;;;22.51;39.07;100441.38;5044119;28;46269;-75
2022/04/01 11:33:18;;;;;;;;;3.00;3.00;;;;;22.55;38.88;100451.88;5048535;28;45639;-77
2022/04/01 11:35:49;;;;;;;;;4.00;2.00;;;;;22.56;39.35;100445.47;5041074;28;45934;-76
2022/04/01 11:38:18;;;;;;;;;3.33;2.33;;;;;22.58;39.29;100446.97;5054637;28;45391;-75
2022/04/01 11:40:45;;;;;;;;;3.33;3.00;;;;;22.62;39.46;100455.59;5053268;28;46319;-74
2022/04/01 11:43:15;;;;;;;;;2.33;2.00;;;;;22.65;39.41;100460.69;5054431;28;45562;-74
2022/04/01 11:45:45;;;;;;;;;3.00;3.00;;;;;22.69;39.64;100467.44;5045755;28;45613;-75
2022/04/01 11:48:18;;;;;;;;;4.00;2.00;;;;;22.73;39.40;100459.81;5054240;28;45780;-75
2022/04/01 11:50:50;;;;;;;;;3.33;3.33;;;;;22.77;39.40;100463.88;5053119;28;46255;-74
2022/04/01 11:53:23;;;;;;;;;2.00;2.00;;;;;22.81;39.61;100465.22;5055172;28;45499;-74
2022/04/01 11:55:49;;;;;;;;;3.67;3.33;;;;;22.84;39.97;100473.00;5045081;28;45293;-74
2022/04/01 11:58:15;;;;;;;;;3.33;3.33;;;;;22.86;39.97;100472.84;5046784;28;45661;-74
2022/04/01 12:00:40;;;;;;;;;2.33;2.33;;;;;22.92;39.46;100476.72;5042396;28;45325;-74
2022/04/01 12:03:09;;;;;;;;;3.33;3.33;;;;;22.94;39.81;100478.25;5043439;28;46592;-74
2022/04/01 12:05:34;;;;;;;;;4.33;1.00;;;;;22.97;40.09;100468.94;5036424;28;45281;-74
2022/04/01 12:11:00;;;;;;;;;3.00;3.00;;;;;23.05;39.93;100473.50;5043254;28;45501;-75
2022/04/01 12:13:30;;;;;;;;;3.00;3.00;;;;;23.09;40.32;100482.97;5042897;28;47520;-74
2022/04/01 12:15:58;;;;;;;;;4.00;4.00;;;;;23.11;39.85;100473.66;5040403;28;45462;-73
2022/04/01 12:18:28;;;;;;;;;4.33;3.00;;;;;23.15;39.94;100484.97;5049587;28;45853;-73
2022/04/01 12:20:57;;;;;;;;;2.33;2.33;;;;;23.16;40.06;100484.81;5036619;28;46219;-71
2022/04/01 12:23:27;;;;;;;;;1.67;1.67;;;;;23.18;39.77;100495.47;5039550;28;45564;-73
2022/04/01 12:25:55;;;;;;;;;4.00;2.33;;;;;23.20;40.10;100496.13;5041947;28;45432;-72
2022/04/01 12:28:24;;;;;;;;;4.33;3.67;;;;;23.20;40.20;100492.56;5046871;28;45715;-71
2022/04/01 12:30:52;;;;;;;;;2.67;2.67;;;;;23.23;40.23;100506.63;5041937;28;45513;-72
2022/04/01 12:33:20;;;;;;;;;3.00;2.00;;;;;23.24;40.31;100504.75;5044862;28;45408;-72
2022/04/01 12:35:52;;;;;;;;;3.00;2.00;;;;;23.25;40.37;100499.16;5064759;28;45522;-72
2022/04/01 12:38:18;;;;;;;;;2.00;2.00;;;;;23.28;40.09;100497.97;5050367;28;45285;-72
2022/04/01 12:40:43;;;;;;;;;2.67;2.00;;;;;23.28;40.42;100504.25;5048558;28;45501;-72
2022/04/01 12:43:45;;;;;;;;;2.00;2.00;;;;;23.28;40.63;100504.25;5052462;28;45380;-73
2022/04/01 12:46:19;;;;;;;;;3.00;3.00;;;;;23.28;39.67;100504.25;5046441;28;45620;-72
2022/04/01 12:48:52;;;;;;;;;2.00;2.00;;;;;23.24;38.93;100519.13;5048239;28;45897;-73
2022/04/01 12:51:32;;;;;;;;;2.00;2.00;;;;;23.16;38.32;100513.72;5040239;28;45506;-73
2022/04/01 12:54:04;;;;;;;;;2.00;2.00;;;;;23.10;38.53;100506.28;5041956;28;45913;-71
2022/04/01 12:56:33;;;;;;;;;4.33;2.00;;;;;23.09;39.09;100507.31;5048130;28;45518;-71
2022/04/01 12:59:16;;;;;;;;;2.33;2.33;;;;;23.08;38.80;100509.16;5053972;28;45458;-72
2022/04/01 13:01:44;;;;;;;;;4.00;4.00;;;;;23.09;38.98;100504.63;5045304;28;46079;-72
2022/04/01 13:04:17;;;;;;;;;2.33;2.33;;;;;23.09;38.83;100510.03;5041263;28;45469;-72
2022/04/01 13:07:03;;;;;;;;;2.33;2.33;;;;;23.10;39.28;100507.13;5038193;28;47756;-72
2022/04/01 13:09:28;;;;;;;;;4.00;4.00;;;;;23.10;39.17;100523.38;5052471;28;45576;-72
2022/04/01 13:11:58;;;;;;;;;2.67;2.00;;;;;23.13;39.04;100516.78;5047887;28;57282;-71
2022/04/01 13:14:25;;;;;;;;;3.00;3.00;;;;;23.13;39.66;100514.09;5050864;28;45446;-72
2022/04/01 13:16:53;;;;;;;;;1.67;1.67;;;;;23.14;39.75;100523.88;5050169;28;45556;-72
2022/04/01 13:19:19;;;;;;;;;4.67;4.67;;;;;23.13;39.63;100517.63;5050674;28;45530;-73
2022/04/01 13:21:45;;;;;;;;;3.00;3.00;;;;;23.14;39.31;100524.72;5051887;28;46399;-73
2022/04/01 13:24:11;;;;;;;;;3.67;3.67;;;;;23.14;39.38;100532.00;5050332;28;54383;-72
2022/04/01 13:26:36;;;;;;;;;3.00;3.00;;;;;23.13;39.63;100533.03;5050058;28;45765;-72
2022/04/01 13:29:02;;;;;;;;;6.00;4.00;;;;;23.12;39.66;100534.88;5052023;28;45460;-73
2022/04/01 13:31:28;;;;;;;;;4.00;4.00;;;;;23.13;39.75;100533.03;5049311;28;46332;-72
2022/04/01 13:33:54;;;;;;;;;5.67;5.00;;;;;23.12;39.62;100534.88;5045228;28;45407;-72
2022/04/01 13:36:20;;;;;;;;;4.00;4.00;;;;;23.11;39.48;100538.63;5041395;28;45570;-71
2022/04/01 13:38:45;;;;;;;;;4.00;4.00;;;;;23.11;39.50;100543.16;5035453;28;45578;-72
2022/04/01 13:41:10;;;;;;;;;4.00;4.00;;;;;23.08;39.61;100538.94;5052543;28;52744;-74
2022/04/01 13:43:35;;;;;;;;;6.00;5.67;;;;;23.07;40.05;100553.50;5043147;28;50552;-73
2022/04/01 13:46:01;;;;;;;;;11.67;9.00;;;;;23.07;39.80;100549.94;5050004;28;59249;-74
2022/04/01 13:48:26;;;;;;;;;13.67;12.67;;;;;23.05;40.18;100536.56;5049783;28;46304;-74
2022/04/01 13:50:53;;;;;;;;;15.33;13.00;;;;;23.05;40.14;100536.56;5048445;28;46162;-75
2022/04/01 13:53:19;;;;;;;;;18.00;17.00;;;;;23.06;40.11;100550.97;5054264;28;45682;-74
2022/04/01 13:55:45;;;;;;;;;21.25;20.00;;;;;23.03;40.51;100555.72;5051976;28;45379;-72
2022/04/01 13:58:11;;;;;;;;;24.25;22.50;;;;;23.04;40.71;100548.41;5046782;28;45585;-72
2022/04/01 14:00:39;;;;;;;;;22.50;22.25;;;;;23.02;40.44;100539.63;5047851;28;45909;-72
2022/04/01 14:03:04;;;;;;;;;25.00;22.50;;;;;23.00;40.65;100547.91;5036688;28;45654;-72
2022/04/01 14:05:30;;;;;;;;;27.75;25.50;;;;;22.97;40.53;100550.94;5036865;28;45686;-72
2022/04/01 14:07:55;;;;;;;;;31.50;28.25;;;;;22.94;40.55;100554.03;5048940;28;45807;-72
2022/04/01 14:10:21;;;;;;;;;28.00;25.75;;;;;22.92;41.14;100558.75;5043018;28;45446;-71
2022/04/01 14:12:46;;;;;;;;;28.75;25.25;;;;;22.90;40.77;100558.91;5049305;28;52188;-73
2022/04/01 14:15:11;;;;;;;;;29.25;26.00;;;;;22.92;41.47;100574.16;5049838;28;45323;-73
2022/04/01 14:17:37;;;;;;;;;29.75;25.75;;;;;22.90;41.28;100561.59;5050456;28;45309;-74
2022/04/01 14:20:04;;;;;;;;;22.25;21.00;;;;;22.89;40.85;100567.22;5043560;28;45812;-70
2022/04/01 14:22:29;;;;;;;;;17.33;15.33;;;;;22.89;40.16;100578.88;5050293;28;45445;-70
2022/04/01 14:24:54;;;;;;;;;14.67;13.67;;;;;22.88;40.44;100568.19;5049780;28;45773;-71
2022/04/01 14:27:20;;;;;;;;;17.33;13.33;;;;;22.87;40.09;100588.16;5048041;28;45418;-69
2022/04/01 14:32:29;;;;;;;;;9.67;9.67;;;;;22.85;39.86;100587.50;5049420;28;45397;-70
2022/04/01 14:34:54;;;;;;;;;13.00;13.00;;;;;22.83;40.04;100579.53;5039912;28;45621;-70
2022/04/01 14:37:20;;;;;;;;;10.33;9.00;;;;;22.83;39.47;100584.97;5043242;28;45573;-70
2022/04/01 14:39:46;;;;;;;;;10.00;10.00;;;;;22.84;39.65;100572.28;5036418;28;46057;-71
2022/04/01 14:42:11;;;;;;;;;8.00;7.00;;;;;22.83;39.53;100573.28;5052685;28;45882;-71
2022/04/01 14:44:36;;;;;;;;;12.00;8.33;;;;;22.83;39.52;100586.81;5055210;28;45416;-70
2022/04/01 14:47:02;;;;;;;;;8.00;8.00;;;;;22.81;39.74;100589.66;5053621;28;45486;-70
2022/04/01 14:49:27;;;;;;;;;10.67;9.67;;;;;22.80;39.51;100598.81;5048780;28;46036;-70
2022/04/01 14:51:53;;;;;;;;;8.67;8.33;;;;;22.79;39.61;100597.13;5046471;28;45840;-70
2022/04/01 14:54:19;;;;;;;;;7.67;7.00;;;;;22.78;39.63;100603.56;5052329;28;45426;-70
2022/04/01 14:56:44;;;;;;;;;7.33;7.00;;;;;22.75;39.35;100607.44;5038429;28;45749;-71
2022/04/01 14:59:10;;;;;;;;;8.33;8.00;;;;;22.75;39.40;100601.19;5053621;28;48093;-71
2022/04/01 15:01:36;;;;;;;;;9.67;8.67;;;;;22.72;39.70;100620.47;5045655;28;45699;-71
2022/04/01 15:04:01;;;;;;;;;10.67;9.33;;;;;22.67;39.32;100609.25;5051201;28;48487;-72
2022/04/01 15:06:27;;;;;;;;;8.33;7.00;;;;;22.71;39.38;100619.59;5050202;28;45376;-72
2022/04/01 15:08:52;;;;;;;;;8.33;8.33;;;;;22.73;39.28;100619.44;5040203;28;45468;-73
2022/04/01 15:11:17;;;;;;;;;12.00;7.33;;;;;22.75;39.63;100629.09;5053601;28;45350;-73
2022/04/01 15:13:43;;;;;;;;;7.00;6.00;;;;;22.76;39.69;100617.25;5045766;28;45671;-72
2022/04/01 15:16:10;;;;;;;;;5.67;4.33;;;;;22.77;39.34;100620.81;5048671;28;45256;-75
2022/04/01 15:18:36;;;;;;;;;7.33;7.00;;;;;22.72;38.79;100621.28;5052154;28;47272;-74
2022/04/01 15:21:02;;;;;;;;;7.00;4.33;;;;;22.70;38.99;100638.69;5053646;28;45634;-73
2022/04/01 15:23:28;;;;;;;;;6.67;6.67;;;;;22.66;39.00;100627.38;5043294;28;45996;-74
2022/04/01 15:25:55;;;;;;;;;9.33;8.67;;;;;22.68;39.23;100635.34;5045614;28;45581;-73
2022/04/01 15:28:21;;;;;;;;;5.33;5.00;;;;;22.65;38.83;100636.50;5051921;28;46197;-73
2022/04/01 15:30:46;;;;;;;;;8.67;7.33;;;;;22.63;38.78;100633.97;5051305;28;51369;-73
2022/04/01 15:33:11;;;;;;;;;3.00;3.00;;;;;22.61;38.83;100633.25;5051692;28;45618;-73
2022/04/01 15:35:38;;;;;;;;;6.00;6.00;;;;;22.58;39.22;100635.47;5052385;28;45367;-73
2022/04/01 15:38:09;;;;;;;;;7.33;7.33;;;;;22.56;39.44;100642.91;5051615;28;45960;-75
2022/04/01 15:40:38;;;;;;;;;6.00;6.00;;;;;22.54;39.46;100648.47;5051693;28;45482;-71
2022/04/01 15:43:05;;;;;;;;;8.00;8.00;;;;;22.53;38.97;100644.06;5050651;28;45539;-73
2022/04/01 15:45:33;;;;;;;;;6.33;6.33;;;;;22.52;38.89;100650.44;5048127;28;45792;-73
2022/04/01 15:48:00;;;;;;;;;9.67;8.33;;;;;22.51;38.80;100657.72;5050139;28;46203;-72
2022/04/01 15:50:27;;;;;;;;;5.33;5.33;;;;;22.49;39.02;100651.63;5052165;28;45659;-73
2022/04/01 15:52:56;;;;;;;;;7.00;7.00;;;;;22.47;39.35;100661.78;5051993;28;45497;-71
2022/04/01 15:55:22;;;;;;;;;6.67;5.33;;;;;22.46;38.93;100656.53;5050657;28;45806;-72
2022/04/01 15:57:51;;;;;;;;;7.67;6.67;;;;;22.45;38.98;100665.66;5050546;28;46178;-71
2022/04/01 16:00:18;;;;;;;;;8.00;6.33;;;;;22.43;38.90;100663.09;5049395;28;45552;-71
2022/04/01 16:03:00;;;;;;;;;8.33;6.00;;;;;22.43;39.53;100664.97;5050879;28;45736;-72
2022/04/01 16:05:26;;;;;;;;;8.00;6.33;;;;;22.43;39.19;100673.91;5053070;28;45403;-72
2022/04/01 16:07:52;;;;;;;;;7.00;6.00;;;;;22.45;39.38;100671.91;5053553;28;46256;-72
2022/04/01 16:10:21;;;;;;;;;7.33;6.00;;;;;22.44;38.97;100667.50;5050366;28;45536;-71
2022/04/01 16:12:50;;;;;;;;;7.00;7.00;;;;;22.45;39.26;100673.75;5047872;28;45410;-72
2022/04/01 16:15:16;;;;;;;;;8.33;6.00;;;;;22.46;38.95;100670.91;5050483;28;45469;-71
2022/04/01 16:17:41;;;;;;;;;6.00;5.00;;;;;22.47;39.12;100674.44;5048632;28;46000;-72
2022/04/01 16:20:09;;;;;;;;;5.67;5.00;;;;;22.48;38.97;100676.97;5049494;28;45548;-70
2022/04/01 16:22:36;;;;;;;;;6.00;5.67;;;;;22.49;39.11;100680.53;5051492;28;45332;-70
2022/04/01 16:25:04;;;;;;;;;8.67;5.33;;;;;22.51;39.22;100682.06;5050912;28;45538;-70
2022/04/01 16:27:30;;;;;;;;;5.00;3.00;;;;;22.51;39.15;100684.78;5045649;28;47250;-70
2022/04/01 16:29:57;;;;;;;;;5.00;5.00;;;;;22.53;39.58;100686.47;5049487;28;45569;-70
2022/04/01 16:32:23;;;;;;;;;5.33;5.33;;;;;22.56;39.57;100676.19;5050322;28;45426;-71
2022/04/01 16:34:49;;;;;;;;;7.33;7.33;;;;;22.60;39.59;100685.69;5047997;28;45464;-73
2022/04/01 16:37:16;;;;;;;;;6.67;6.67;;;;;22.64;39.53;100684.34;5041793;28;46060;-72
2022/04/01 16:39:43;;;;;;;;;6.33;6.00;;;;;22.68;39.77;100684.84;5049799;28;45454;-73
2022/04/01 16:42:09;;;;;;;;;9.00;7.33;;;;;22.72;39.34;100707.03;5049109;28;45434;-72
2022/04/01 16:44:35;;;;;;;;;7.00;5.67;;;;;22.75;39.88;100702.13;5050164;28;45529;-75
2022/04/01 16:47:00;;;;;;;;;7.00;6.33;;;;;22.77;39.29;100699.28;5040095;28;46085;-73
2022/04/01 16:49:25;;;;;;;;;9.67;8.00;;;;;22.80;39.43;100708.91;5049508;28;45716;-74
2022/04/01 16:51:51;;;;;;;;;10.00;7.00;;;;;22.81;39.16;100706.03;5044028;28;45542;-74
